Time;durP1;ratioP1;P1;durP2;ratioP2;P2;SDS_P1;SDS_P2;PMS_P1;PMS_P2;Temp;Humidity;BMP_temperature;BMP_pressure;BME280_temperature;BME280_humidity;BME280_pressure;Samples;Min_cycle;Max_cycle;Signal;HPM_P1;HPM_P2
2023/10/06 00:01:33;;;;;;;18.53;8.37;;;;;;;-144.30;65.61;85261.25;5110684;28;20251;-57
2023/10/06 00:04:06;;;;;;;15.90;8.50;;;;;;;-144.30;65.73;85241.38;5110851;28;20250;-58
2023/10/06 00:06:37;;;;;;;19.23;7.80;;;;;;;-144.30;65.96;85265.22;5111137;28;20234;-57
2023/10/06 00:09:08;;;;;;;13.80;8.50;;;;;;;-144.30;66.05;85265.22;5111074;28;20631;-57
2023/10/06 00:11:37;;;;;;;17.73;8.23;;;;;;;-144.30;65.91;85239.38;5110938;28;20663;-57
2023/10/06 00:14:18;;;;;;;17.53;8.57;;;;;;;-144.30;66.16;85267.22;5110735;28;20722;-57
2023/10/06 00:16:49;;;;;;;16.77;8.73;;;;;;;-144.30;66.54;85243.38;5110992;28;20258;-57
2023/10/06 00:19:25;;;;;;;23.20;9.67;;;;;;;-144.30;66.55;85293.06;5110604;28;20198;-58
2023/10/06 00:22:02;;;;;;;16.90;8.70;;;;;;;-144.30;66.46;85279.16;5110477;28;20201;-57
2023/10/06 00:24:31;;;;;;;20.43;8.70;;;;;;;-144.30;66.27;85289.09;5110510;28;20257;-58
2023/10/06 00:26:58;;;;;;;23.27;9.17;;;;;;;-144.30;65.71;85297.03;5110515;28;20241;-57
2023/10/06 00:29:29;;;;;;;16.60;9.07;;;;;;;-144.30;65.55;85235.41;5110670;28;20199;-58
2023/10/06 00:32:03;;;;;;;21.93;9.43;;;;;;;-144.30;65.02;85269.22;5110591;28;20230;-58
2023/10/06 00:34:31;;;;;;;18.00;9.10;;;;;;;-144.30;65.09;85259.28;5110486;28;20257;-57
2023/10/06 00:37:01;;;;;;;16.30;9.60;;;;;;;-144.30;64.91;85253.31;5110203;28;20202;-57
2023/10/06 00:39:30;;;;;;;15.23;9.07;;;;;;;-144.30;64.42;85253.31;5110513;28;20203;-57
2023/10/06 00:42:06;;;;;;;18.73;9.53;;;;;;;-144.30;64.50;85265.22;5110571;28;20198;-57
2023/10/06 00:44:34;;;;;;;20.27;9.83;;;;;;;-144.30;64.81;85205.59;5110228;28;20196;-58
2023/10/06 00:47:05;;;;;;;23.97;9.67;;;;;;;-144.30;64.91;85269.22;5110340;28;20201;-57
2023/10/06 00:49:34;;;;;;;17.87;10.00;;;;;;;-144.30;64.82;85279.16;5110503;28;20655;-58
2023/10/06 00:52:01;;;;;;;18.47;9.90;;;;;;;-144.30;64.81;85253.31;5110211;28;20241;-58
2023/10/06 00:54:28;;;;;;;18.57;9.93;;;;;;;-144.30;64.73;85245.34;5110140;28;20224;-58
2023/10/06 00:56:57;;;;;;;18.97;9.00;;;;;;;-144.30;65.31;85279.16;5110254;28;20199;-57
2023/10/06 00:59:24;;;;;;;15.67;9.53;;;;;;;-144.30;65.39;85265.22;5110271;28;20190;-57
2023/10/06 01:01:52;;;;;;;22.53;9.30;;;;;;;-144.30;64.79;85241.38;5110077;28;20239;-57
2023/10/06 01:04:24;;;;;;;19.73;10.20;;;;;;;-144.30;64.83;85253.31;5110126;28;20194;-57
2023/10/06 01:06:54;;;;;;;14.17;9.50;;;;;;;-144.30;64.88;85285.09;5112354;28;20271;-58
2023/10/06 01:09:30;;;;;;;17.30;10.17;;;;;;;-144.30;64.98;85281.13;5114095;28;20289;-58
2023/10/06 01:11:58;;;;;;;17.57;9.20;;;;;;;-144.30;65.20;85247.34;5114200;28;20194;-57
2023/10/06 01:14:26;;;;;;;17.73;9.20;;;;;;;-144.30;65.70;85267.22;5100885;28;20226;-58
2023/10/06 01:17:04;;;;;;;17.20;8.73;;;;;;;-144.30;65.60;85308.97;5093731;28;20200;-58
2023/10/06 01:19:34;;;;;;;24.73;9.57;;;;;;;-144.30;65.80;85265.22;5104785;28;20194;-57
2023/10/06 01:22:18;;;;;;;20.30;9.60;;;;;;;-144.30;65.75;85295.06;5114062;28;20228;-58
2023/10/06 01:24:46;;;;;;;13.00;9.03;;;;;;;-144.30;65.76;85281.13;5113865;28;20555;-59
2023/10/06 01:27:13;;;;;;;22.50;9.40;;;;;;;-144.30;65.98;85293.06;5113852;28;20234;-57
2023/10/06 01:29:42;;;;;;;19.90;9.20;;;;;;;-144.30;66.26;85257.28;5114212;28;20579;-58
2023/10/06 01:32:09;;;;;;;20.13;10.00;;;;;;;-144.30;66.32;85281.13;5113743;28;20198;-57
2023/10/06 01:34:38;;;;;;;22.03;10.07;;;;;;;-144.30;66.64;85297.03;5113791;27;20256;-57
2023/10/06 01:37:05;;;;;;;13.37;9.23;;;;;;;-144.30;67.09;85295.06;5113664;28;20198;-57
2023/10/06 01:39:35;;;;;;;18.50;8.93;;;;;;;-144.30;67.80;85308.97;5113497;28;20259;-58
2023/10/06 01:42:07;;;;;;;16.63;9.93;;;;;;;-144.30;68.57;85201.63;5113733;28;20213;-58
2023/10/06 01:44:34;;;;;;;24.70;9.77;;;;;;;-144.30;68.91;85340.78;5113782;28;20588;-58
2023/10/06 01:47:04;;;;;;;20.03;10.07;;;;;;;-144.30;69.08;85356.69;5113527;28;20674;-57
2023/10/06 01:49:33;;;;;;;18.40;10.77;;;;;;;-144.30;69.34;85348.72;5113579;28;20740;-59
2023/10/06 01:52:02;;;;;;;18.97;10.10;;;;;;;-144.30;69.20;85559.44;5113311;28;20267;-57
2023/10/06 01:54:34;;;;;;;20.17;10.10;;;;;;;-144.30;69.46;85305.00;5113660;28;20305;-57
2023/10/06 01:57:06;;;;;;;21.87;10.30;;;;;;;-144.30;69.79;85332.81;5113391;27;20198;-58
2023/10/06 01:59:34;;;;;;;19.73;9.83;;;;;;;-144.30;69.48;85372.56;5113361;28;20237;-57
2023/10/06 02:02:01;;;;;;;18.03;9.67;;;;;;;-144.30;69.38;85388.47;5113198;27;20198;-59
2023/10/06 02:04:38;;;;;;;21.00;12.43;;;;;;;-144.30;69.15;85328.84;5113064;28;20289;-57
2023/10/06 02:07:09;;;;;;;23.97;11.03;;;;;;;-144.30;69.53;85354.69;5113376;28;20607;-56
2023/10/06 02:09:37;;;;;;;23.10;11.37;;;;;;;-144.30;69.39;85336.78;5113324;28;20671;-57
2023/10/06 02:12:06;;;;;;;22.73;11.57;;;;;;;-144.30;69.39;85360.66;5113122;28;20591;-58
2023/10/06 02:14:33;;;;;;;28.33;15.07;;;;;;;-144.30;70.00;85376.56;5112871;28;20197;-58
2023/10/06 02:17:05;;;;;;;26.10;12.30;;;;;;;-144.30;69.97;85328.84;5112743;28;20594;-56
2023/10/06 02:19:32;;;;;;;23.30;11.50;;;;;;;-144.30;70.21;85052.53;5112226;28;20209;-58
2023/10/06 02:22:00;;;;;;;16.10;10.90;;;;;;;-144.30;71.04;85368.59;5112901;28;20197;-57
2023/10/06 02:24:27;;;;;;;18.70;10.30;;;;;;;-144.30;71.29;85416.31;5112923;28;20635;-57
2023/10/06 02:27:00;;;;;;;19.70;10.00;;;;;;;-144.30;71.76;85253.31;5112711;28;20237;-58
2023/10/06 02:29:29;;;;;;;17.10;9.83;;;;;;;-144.30;71.66;85402.41;5112759;28;20285;-57
2023/10/06 02:32:00;;;;;;;21.27;10.03;;;;;;;-144.30;71.74;85416.31;5112695;28;20421;-58
2023/10/06 02:34:30;;;;;;;19.30;10.20;;;;;;;-144.30;71.51;85442.16;5112763;28;20245;-58
2023/10/06 02:36:57;;;;;;;16.00;9.67;;;;;;;-144.30;71.77;85438.19;5112865;28;20664;-57
2023/10/06 02:39:28;;;;;;;19.73;10.47;;;;;;;-144.30;72.32;85412.34;5112612;28;20300;-58
2023/10/06 02:41:57;;;;;;;22.00;10.57;;;;;;;-144.30;72.76;85396.44;5112497;28;20714;-58
2023/10/06 02:44:25;;;;;;;21.77;10.47;;;;;;;-144.30;72.40;85430.22;5112699;28;20738;-58
2023/10/06 02:46:53;;;;;;;21.87;11.00;;;;;;;-144.30;71.88;85408.34;5112670;28;20683;-58
2023/10/06 02:49:31;;;;;;;19.20;10.30;;;;;;;-144.30;71.85;85289.09;5112377;28;20263;-57
2023/10/06 02:52:00;;;;;;;16.00;10.23;;;;;;;-144.30;71.43;85414.31;5112369;28;20198;-58
2023/10/06 02:54:29;;;;;;;20.03;11.13;;;;;;;-144.30;71.97;85434.22;5112123;28;20216;-57
2023/10/06 02:56:56;;;;;;;16.97;10.00;;;;;;;-144.30;71.85;85565.41;5112269;28;20233;-57
2023/10/06 02:59:25;;;;;;;23.30;11.40;;;;;;;-144.30;72.02;85229.44;5112117;28;20191;-58
2023/10/06 03:01:55;;;;;;;17.77;10.97;;;;;;;-144.30;72.42;85410.34;5112165;28;20190;-59
2023/10/06 03:04:26;;;;;;;16.97;10.30;;;;;;;-144.30;72.66;85448.13;5112027;27;20717;-58
2023/10/06 03:06:55;;;;;;;19.17;10.50;;;;;;;-144.30;73.15;85454.09;5111951;28;20289;-57
2023/10/06 03:09:27;;;;;;;15.73;10.40;;;;;;;-144.30;73.63;85499.81;5101247;28;20200;-57
2023/10/06 03:11:58;;;;;;;15.60;10.63;;;;;;;-144.30;73.44;85485.88;5091805;28;20621;-58
2023/10/06 03:14:37;;;;;;;17.57;11.00;;;;;;;-144.30;73.34;85473.97;5091451;28;20235;-57
2023/10/06 03:17:08;;;;;;;24.67;10.57;;;;;;;-144.30;73.44;85471.97;5091405;28;20199;-57
2023/10/06 03:19:37;;;;;;;20.50;11.33;;;;;;;-144.30;73.83;85456.06;5091368;28;20199;-57
2023/10/06 03:22:05;;;;;;;16.47;9.97;;;;;;;-144.30;74.16;85503.78;5091469;28;20286;-57
2023/10/06 03:24:33;;;;;;;16.03;10.20;;;;;;;-144.30;74.81;85511.75;5091343;28;20191;-57
2023/10/06 03:27:04;;;;;;;16.13;10.20;;;;;;;-144.30;74.79;85503.78;5091258;28;20622;-56
2023/10/06 03:29:44;;;;;;;17.47;10.77;;;;;;;-144.30;74.56;85495.84;5109368;28;20593;-57
2023/10/06 03:32:22;;;;;;;16.73;11.00;;;;;;;-144.30;74.76;85466.00;5111663;28;20578;-57
2023/10/06 03:34:51;;;;;;;20.37;11.63;;;;;;;-144.30;74.73;85390.47;5099357;28;20267;-57
2023/10/06 03:37:34;;;;;;;20.27;10.50;;;;;;;-144.30;74.57;85515.72;5097746;28;20191;-57
2023/10/06 03:40:11;;;;;;;19.57;10.10;;;;;;;-144.30;75.00;85515.72;5090982;28;20602;-59
2023/10/06 03:42:39;;;;;;;23.50;10.50;;;;;;;-144.30;74.86;85505.78;5094382;28;20222;-60
2023/10/06 03:45:18;;;;;;;23.23;10.27;;;;;;;-144.30;74.65;85468.00;5099207;28;20616;-58
2023/10/06 03:47:48;;;;;;;23.37;11.10;;;;;;;-144.30;74.60;85519.69;5090982;28;20672;-58
2023/10/06 03:50:16;;;;;;;16.57;10.13;;;;;;;-144.30;74.72;85507.75;5090910;28;20199;-58
2023/10/06 03:52:43;;;;;;;17.07;10.00;;;;;;;-144.30;74.94;85491.84;5090723;28;20646;-59
2023/10/06 03:55:13;;;;;;;14.70;10.13;;;;;;;-144.30;75.16;85481.91;5090370;28;20227;-57
2023/10/06 03:57:40;;;;;;;15.10;10.30;;;;;;;-144.30;74.87;85497.81;5090643;28;20253;-56
2023/10/06 04:00:17;;;;;;;22.43;9.73;;;;;;;-144.30;75.36;85535.59;5090741;28;20199;-57
2023/10/06 04:02:48;;;;;;;20.23;9.97;;;;;;;-144.30;75.35;85471.97;5090548;28;20194;-57
2023/10/06 04:05:18;;;;;;;16.43;9.67;;;;;;;-144.30;75.79;85517.69;5090471;28;20628;-58
2023/10/06 04:07:46;;;;;;;21.40;9.83;;;;;;;-144.30;75.84;85533.59;5090668;28;20245;-59
2023/10/06 04:10:16;;;;;;;20.97;10.43;;;;;;;-144.30;76.37;85545.53;5104440;28;20203;-58
2023/10/06 04:12:44;;;;;;;18.47;10.30;;;;;;;-144.30;76.51;85567.41;5111107;28;20205;-58
2023/10/06 04:15:14;;;;;;;15.57;9.30;;;;;;;-144.30;76.67;85503.78;5110553;28;20760;-58
2023/10/06 04:17:43;;;;;;;21.67;10.57;;;;;;;-144.30;76.33;85535.59;5110507;28;20198;-59
2023/10/06 04:20:14;;;;;;;21.60;10.10;;;;;;;-144.30;76.07;85513.72;5110591;28;20191;-58
2023/10/06 04:22:43;;;;;;;20.77;10.40;;;;;;;-144.30;75.91;85527.63;5110658;28;20323;-59
2023/10/06 04:25:11;;;;;;;17.23;9.60;;;;;;;-144.30;75.96;85533.59;5110541;28;20652;-58
2023/10/06 04:27:39;;;;;;;20.03;9.00;;;;;;;-144.30;75.89;85219.50;5110503;28;20294;-58
2023/10/06 04:30:11;;;;;;;15.97;9.80;;;;;;;-144.30;75.76;85523.66;5109447;28;20692;-59
2023/10/06 04:32:39;;;;;;;15.87;9.90;;;;;;;-144.30;75.52;85515.72;5110367;28;20274;-60
2023/10/06 04:35:07;;;;;;;20.00;10.40;;;;;;;-144.30;75.10;85491.84;5110324;28;20675;-58
2023/10/06 04:37:35;;;;;;;26.17;10.10;;;;;;;-144.30;74.84;85513.72;5109966;28;20586;-58
2023/10/06 04:40:06;;;;;;;28.17;10.77;;;;;;;-144.30;74.13;85479.94;5110484;28;20653;-59
2023/10/06 04:42:33;;;;;;;19.50;10.13;;;;;;;-144.30;73.77;85493.84;5109894;28;20195;-58
2023/10/06 04:45:00;;;;;;;20.03;10.33;;;;;;;-144.30;73.61;85499.81;5107912;28;20205;-60
2023/10/06 04:47:31;;;;;;;18.37;10.00;;;;;;;-144.30;73.15;85466.00;5090052;28;20195;-60
2023/10/06 04:49:57;;;;;;;33.83;10.47;;;;;;;-144.30;73.12;85477.94;5090127;28;20199;-58
2023/10/06 04:52:24;;;;;;;18.70;10.13;;;;;;;-144.30;72.70;85505.78;5090081;28;20294;-59
2023/10/06 04:54:52;;;;;;;23.43;9.67;;;;;;;-144.30;72.37;85499.81;5089978;28;20256;-59
2023/10/06 04:57:20;;;;;;;16.33;9.03;;;;;;;-144.30;72.30;85466.00;5089640;28;20322;-58
2023/10/06 04:59:47;;;;;;;16.83;9.10;;;;;;;-144.30;72.06;85487.88;5090153;28;20601;-58
2023/10/06 05:02:14;;;;;;;17.03;9.77;;;;;;;-144.30;71.42;85456.06;5089850;28;20206;-58
2023/10/06 05:04:41;;;;;;;35.37;10.50;;;;;;;-144.30;71.14;85448.13;5105705;28;20230;-58
2023/10/06 05:07:07;;;;;;;18.30;9.77;;;;;;;-144.30;70.68;85418.31;5110253;28;20194;-58
2023/10/06 05:09:39;;;;;;;20.97;9.97;;;;;;;-144.30;70.29;85396.44;5110263;28;20694;-59
2023/10/06 05:12:07;;;;;;;20.57;9.30;;;;;;;-144.30;69.41;85386.50;5109900;28;20636;-58
2023/10/06 05:14:35;;;;;;;15.50;9.47;;;;;;;-144.30;68.91;85364.63;5110015;28;20195;-59
2023/10/06 05:17:03;;;;;;;18.03;9.97;;;;;;;-144.30;68.70;85356.69;5109867;28;20224;-59
2023/10/06 05:19:29;;;;;;;21.43;10.50;;;;;;;-144.30;67.72;85330.84;5110083;28;20198;-60
2023/10/06 05:21:56;;;;;;;16.77;9.23;;;;;;;-144.30;66.70;85297.03;5110163;28;20190;-58
2023/10/06 05:24:23;;;;;;;22.43;11.57;;;;;;;-144.30;66.97;85328.84;5109851;28;20201;-58
2023/10/06 05:26:50;;;;;;;14.77;9.30;;;;;;;-144.30;67.31;85301.00;5109965;28;20233;-59
2023/10/06 05:29:17;;;;;;;25.73;13.73;;;;;;;-144.30;66.90;85305.00;5110123;28;20199;-60
2023/10/06 05:31:46;;;;;;;17.43;9.37;;;;;;;-144.30;66.40;85273.19;5110352;28;20282;-56
2023/10/06 05:34:17;;;;;;;19.03;10.10;;;;;;;-144.30;66.25;85275.16;5109804;28;20203;-58
2023/10/06 05:36:44;;;;;;;20.00;9.40;;;;;;;-144.30;65.51;85136.03;5109915;28;20717;-58
2023/10/06 05:39:11;;;;;;;34.00;10.07;;;;;;;-144.30;65.64;85241.38;5109916;28;20190;-58
2023/10/06 05:41:39;;;;;;;14.50;9.37;;;;;;;-144.30;65.37;85253.31;5109852;28;20203;-57
2023/10/06 05:44:08;;;;;;;16.43;8.97;;;;;;;-144.30;65.15;84859.72;5109815;28;20198;-57
2023/10/06 05:46:35;;;;;;;19.90;9.17;;;;;;;-144.30;64.40;85229.44;5109607;28;20639;-58
2023/10/06 05:49:04;;;;;;;24.73;11.87;;;;;;;-144.30;63.80;85183.72;5109836;28;20202;-58
2023/10/06 05:51:33;;;;;;;27.20;10.60;;;;;;;-144.30;63.26;85197.66;5109774;28;20230;-58
2023/10/06 05:54:02;;;;;;;18.37;9.43;;;;;;;-144.30;62.82;85191.69;5112083;28;20285;-57
2023/10/06 05:56:29;;;;;;;17.17;8.67;;;;;;;-144.30;62.12;85155.91;5113377;28;20233;-58
2023/10/06 05:58:56;;;;;;;26.77;9.93;;;;;;;-144.30;61.53;85134.03;5113639;28;20202;-58
2023/10/06 06:01:28;;;;;;;18.40;10.00;;;;;;;-144.30;61.53;85110.19;5113279;28;20209;-59
2023/10/06 06:03:57;;;;;;;14.38;8.23;;;;;;;-144.30;61.46;85096.25;5113256;28;20236;-58
2023/10/06 06:06:26;;;;;;;22.25;10.05;;;;;;;-144.30;61.11;85100.25;5113294;28;20213;-58
2023/10/06 06:08:55;;;;;;;16.65;9.32;;;;;;;-144.30;60.94;85128.06;5113205;28;20206;-57
2023/10/06 06:11:22;;;;;;;29.20;10.60;;;;;;;-144.30;60.90;85076.38;5113195;27;20578;-58
2023/10/06 06:13:49;;;;;;;20.63;10.73;;;;;;;-144.30;60.93;85114.16;5113242;28;20199;-58
2023/10/06 06:16:16;;;;;;;24.92;10.00;;;;;;;-144.30;60.98;85050.53;5112826;28;20219;-59
2023/10/06 06:18:43;;;;;;;25.35;10.52;;;;;;;-144.30;60.61;85070.44;5112887;28;20206;-58
2023/10/06 06:21:10;;;;;;;24.88;11.40;;;;;;;-144.30;60.48;85018.75;5113147;28;20247;-59
2023/10/06 06:23:39;;;;;;;24.20;10.35;;;;;;;-144.30;60.77;85074.41;5113167;28;20664;-59
2023/10/06 06:26:06;;;;;;;22.27;10.32;;;;;;;-144.30;60.68;85044.59;5112692;28;20780;-58
2023/10/06 06:28:32;;;;;;;19.20;10.18;;;;;;;-144.30;59.90;85038.63;5112970;28;20201;-59
2023/10/06 06:31:04;;;;;;;20.55;10.00;;;;;;;-144.30;59.51;85034.66;5113040;28;20727;-59
2023/10/06 06:33:32;;;;;;;24.23;11.32;;;;;;;-144.30;59.19;85016.75;5112871;28;20260;-59
2023/10/06 06:36:00;;;;;;;22.67;11.15;;;;;;;-144.30;59.08;85014.78;5112746;28;20633;-58
2023/10/06 06:38:28;;;;;;;19.77;10.43;;;;;;;-144.30;58.64;85016.75;5112670;28;20191;-59
2023/10/06 06:40:58;;;;;;;17.98;10.80;;;;;;;-144.30;58.03;84943.22;5112474;28;20198;-57
2023/10/06 06:43:25;;;;;;;25.05;10.68;;;;;;;-144.30;57.86;84939.25;5112394;28;20207;-58
2023/10/06 06:45:53;;;;;;;24.80;10.85;;;;;;;-144.30;57.33;84937.25;5112252;28;20293;-57
2023/10/06 06:48:20;;;;;;;22.65;10.38;;;;;;;-144.30;56.70;84887.56;5099422;28;20210;-58
2023/10/06 06:50:48;;;;;;;23.35;11.32;;;;;;;-144.30;56.48;84877.63;5099390;28;20199;-58
2023/10/06 06:53:18;;;;;;;21.58;11.80;;;;;;;-144.30;56.34;84760.34;5110977;28;20271;-58
2023/10/06 06:55:45;;;;;;;26.33;11.38;;;;;;;-144.30;56.07;84841.84;5101041;28;20347;-58
2023/10/06 06:58:16;;;;;;;33.25;11.90;;;;;;;-144.30;55.79;84819.97;5099283;28;20202;-58
2023/10/06 07:00:43;;;;;;;25.30;10.75;;;;;;;-144.30;55.24;84841.84;5099345;28;20286;-58
2023/10/06 07:03:11;;;;;;;27.90;11.38;;;;;;;-144.30;54.75;84776.25;5102528;28;20214;-58
2023/10/06 07:05:38;;;;;;;24.70;10.43;;;;;;;-144.30;54.57;84774.25;5091229;28;20722;-58
2023/10/06 07:08:05;;;;;;;27.52;10.10;;;;;;;-144.30;54.45;84724.56;5091632;28;20187;-57
2023/10/06 07:10:32;;;;;;;21.35;10.23;;;;;;;-144.30;54.34;84736.50;5091606;28;20245;-57
2023/10/06 07:13:00;;;;;;;21.48;9.68;;;;;;;-144.30;54.11;84724.56;5091307;28;20686;-57
2023/10/06 07:15:29;;;;;;;26.02;11.80;;;;;;;-144.30;53.94;84704.69;5091325;28;20285;-58
2023/10/06 07:17:58;;;;;;;19.58;11.27;;;;;;;-144.30;53.45;84676.88;5090746;28;20313;-58
2023/10/06 07:20:27;;;;;;;30.50;11.05;;;;;;;-144.30;51.95;84573.53;5091263;28;20191;-58
2023/10/06 07:22:55;;;;;;;20.98;11.05;;;;;;;-144.30;51.22;84553.66;5091301;28;20199;-57
2023/10/06 07:25:24;;;;;;;26.65;11.40;;;;;;;-144.30;50.40;84509.94;5090835;28;20195;-58
2023/10/06 07:27:52;;;;;;;24.30;11.98;;;;;;;-144.30;49.60;84537.75;5091309;28;20237;-58
2023/10/06 07:30:22;;;;;;;27.52;12.15;;;;;;;-144.30;49.27;84515.88;5091630;28;20195;-58
2023/10/06 07:32:52;;;;;;;23.30;10.40;;;;;;;-144.30;48.72;84424.47;5110423;28;20731;-59
2023/10/06 07:35:20;;;;;;;24.33;12.23;;;;;;;-144.30;48.39;84434.41;5111472;28;20626;-59
2023/10/06 07:37:49;;;;;;;21.15;12.18;;;;;;;-144.30;48.12;84408.56;5111142;28;20226;-59
2023/10/06 07:40:19;;;;;;;22.23;11.95;;;;;;;-144.30;47.52;84430.44;5111236;28;20251;-59
2023/10/06 07:42:49;;;;;;;25.80;12.20;;;;;;;-144.30;47.37;84394.66;5111568;28;20691;-59
2023/10/06 07:45:17;;;;;;;22.30;10.10;;;;;;;-144.30;46.86;84348.94;5111227;28;20199;-59
2023/10/06 07:47:44;;;;;;;43.22;13.98;;;;;;;-144.30;46.67;84378.75;5111214;28;20198;-59
2023/10/06 07:50:14;;;;;;;23.55;10.15;;;;;;;-144.30;45.83;84291.31;5111068;28;20199;-58
2023/10/06 07:52:42;;;;;;;27.05;11.02;;;;;;;-144.30;45.27;84307.22;5111026;28;20198;-59
2023/10/06 07:55:11;;;;;;;24.92;10.50;;;;;;;-144.30;44.51;84211.81;5111176;28;20195;-60
2023/10/06 07:57:40;;;;;;;21.75;10.05;;;;;;;-144.30;43.84;84184.00;5111220;28;20664;-60
2023/10/06 08:00:09;;;;;;;20.67;9.95;;;;;;;-144.30;43.29;84134.31;5111023;28;20190;-57
2023/10/06 08:02:39;;;;;;;29.40;10.90;;;;;;;-144.30;42.68;84084.66;5111092;28;20198;-59
2023/10/06 08:05:08;;;;;;;21.38;11.05;;;;;;;-144.30;42.15;84088.63;5111292;28;20293;-57
2023/10/06 08:07:38;;;;;;;19.17;9.43;;;;;;;-144.30;41.21;83993.22;5110765;28;20197;-60
2023/10/06 08:10:05;;;;;;;37.30;11.43;;;;;;;-144.30;40.76;83949.50;5105756;28;20202;-59
2023/10/06 08:12:33;;;;;;;22.83;8.95;;;;;;;-144.30;40.11;84013.09;5098253;28;20214;-59
2023/10/06 08:15:01;;;;;;;22.85;9.52;;;;;;;-144.30;40.22;83953.50;5096838;28;20644;-57
2023/10/06 08:17:29;;;;;;;18.73;8.50;;;;;;;-144.30;39.95;83713.06;5096994;28;20210;-57
2023/10/06 08:19:56;;;;;;;18.83;8.38;;;;;;;-144.30;39.92;83961.44;5110240;28;20260;-58
2023/10/06 08:22:25;;;;;;;17.23;8.27;;;;;;;-144.30;39.69;83985.28;5096222;28;20658;-56
2023/10/06 08:24:54;;;;;;;12.18;7.97;;;;;;;-144.30;39.74;83999.19;5102162;28;20645;-58
2023/10/06 08:27:23;;;;;;;23.58;9.73;;;;;;;-144.30;39.86;83977.34;5090005;28;20231;-58
2023/10/06 08:29:52;;;;;;;18.88;8.82;;;;;;;-144.30;39.97;83955.47;5090268;28;20260;-59
2023/10/06 08:32:19;;;;;;;17.90;8.57;;;;;;;-144.30;40.30;84027.00;5090103;28;20199;-59
2023/10/06 08:34:47;;;;;;;21.48;13.88;;;;;;;-144.30;39.69;83923.69;5090204;28;20195;-59
2023/10/06 08:37:14;;;;;;;13.05;8.40;;;;;;;-144.30;39.55;83979.31;5092978;28;20230;-59
2023/10/06 08:39:42;;;;;;;20.08;7.78;;;;;;;-144.30;39.60;83977.34;5110017;28;20199;-57
2023/10/06 08:42:12;;;;;;;22.30;13.13;;;;;;;-144.30;39.53;83955.47;5110600;28;20202;-58
2023/10/06 08:44:40;;;;;;;18.80;10.10;;;;;;;-144.30;39.65;83935.59;5110397;28;20251;-58
2023/10/06 08:47:10;;;;;;;16.02;9.73;;;;;;;-144.30;39.74;83985.28;5110663;28;20683;-58
2023/10/06 08:49:39;;;;;;;13.32;8.70;;;;;;;-144.30;40.14;84005.16;5110673;28;20248;-58
2023/10/06 08:52:08;;;;;;;12.68;8.95;;;;;;;-144.30;40.65;84046.88;5110357;28;20243;-59
2023/10/06 08:54:35;;;;;;;16.85;8.85;;;;;;;-144.30;40.56;84038.94;5110387;28;20222;-58
2023/10/06 08:57:04;;;;;;;15.02;9.57;;;;;;;-144.30;40.52;84021.06;5110143;28;20218;-59
2023/10/06 08:59:33;;;;;;;18.08;9.63;;;;;;;-144.30;40.33;84032.97;5110236;28;20198;-59
2023/10/06 09:02:01;;;;;;;20.40;10.23;;;;;;;-144.30;40.23;84040.91;5110357;28;20293;-57
2023/10/06 09:04:34;;;;;;;17.13;9.50;;;;;;;-144.30;40.52;84048.88;5110164;28;20197;-59
2023/10/06 09:07:12;;;;;;;14.10;8.63;;;;;;;-144.30;40.90;84072.72;5110249;28;20195;-57
2023/10/06 09:09:40;;;;;;;18.90;8.02;;;;;;;-144.30;40.95;84052.84;5110112;28;20284;-59
2023/10/06 09:12:09;;;;;;;20.20;8.60;;;;;;;-144.30;41.16;84074.72;5110291;28;20672;-58
2023/10/06 09:14:52;;;;;;;15.18;8.27;;;;;;;-144.30;41.18;84092.59;5110152;28;20202;-58
2023/10/06 09:17:30;;;;;;;18.35;8.50;;;;;;;-144.30;41.64;83798.50;5104389;28;20222;-58
2023/10/06 09:19:57;;;;;;;15.60;8.15;;;;;;;-144.30;41.70;84104.50;5098071;28;20690;-59
2023/10/06 09:22:29;;;;;;;16.38;8.77;;;;;;;-144.30;41.77;84080.66;5100287;28;20205;-59
2023/10/06 09:25:04;;;;;;;19.30;9.05;;;;;;;-144.30;41.52;84058.81;5100565;28;20195;-60
2023/10/06 09:27:32;;;;;;;16.15;9.13;;;;;;;-144.30;41.23;83935.59;5101042;28;20246;-58
2023/10/06 09:30:01;;;;;;;19.17;8.88;;;;;;;-144.30;41.02;83977.34;5102273;28;20217;-59
2023/10/06 09:32:28;;;;;;;16.05;9.10;;;;;;;-144.30;41.33;84005.16;5103181;28;20285;-59
2023/10/06 09:34:56;;;;;;;19.05;9.07;;;;;;;-144.30;41.14;84013.09;5104040;28;20191;-58
2023/10/06 09:37:24;;;;;;;13.07;9.02;;;;;;;-144.30;41.08;83997.22;5102258;28;20221;-58
2023/10/06 09:40:04;;;;;;;21.17;10.15;;;;;;;-144.30;40.75;83933.63;5102124;28;20195;-58
2023/10/06 09:42:33;;;;;;;24.95;9.80;;;;;;;-144.30;40.48;83949.50;5103512;28;20187;-59
2023/10/06 09:45:11;;;;;;;20.00;8.60;;;;;;;-144.30;40.48;83955.47;5101850;28;20188;-58
2023/10/06 09:47:43;;;;;;;14.60;8.60;;;;;;;-144.30;40.35;83921.69;5102208;28;20191;-60
2023/10/06 09:50:13;;;;;;;15.93;9.35;;;;;;;-144.30;40.03;83889.91;5102799;28;20200;-57
2023/10/06 09:52:43;;;;;;;27.65;9.20;;;;;;;-144.30;39.93;83846.19;5103759;28;20213;-58
2023/10/06 09:55:11;;;;;;;17.45;9.68;;;;;;;-144.30;39.65;83877.97;5103148;28;20238;-58
2023/10/06 09:57:43;;;;;;;13.52;9.43;;;;;;;-144.30;39.22;83802.47;5101320;28;20301;-57
2023/10/06 10:00:16;;;;;;;17.33;9.73;;;;;;;-144.30;38.96;83822.34;5102404;28;20198;-58
2023/10/06 10:02:46;;;;;;;20.00;9.07;;;;;;;-144.30;38.75;83816.38;5101935;28;20657;-58
2023/10/06 10:05:14;;;;;;;20.65;9.27;;;;;;;-144.30;39.11;83838.25;5102841;28;20209;-57
2023/10/06 10:07:41;;;;;;;16.95;9.27;;;;;;;-144.30;39.46;83836.25;5103615;27;20633;-58
2023/10/06 10:10:10;;;;;;;14.80;8.70;;;;;;;-144.30;39.27;83818.38;5101980;28;20203;-58
2023/10/06 10:12:58;;;;;;;13.00;8.57;;;;;;;-144.30;39.02;83846.19;5101526;27;20210;-57
2023/10/06 10:15:37;;;;;;;18.40;8.70;;;;;;;-144.30;39.10;83870.03;5099359;28;20201;-57
2023/10/06 10:18:13;;;;;;;12.30;8.50;;;;;;;-144.30;39.12;83806.44;5101569;28;20609;-58
2023/10/06 10:20:41;;;;;;;14.32;8.82;;;;;;;-144.30;39.12;83866.06;5101358;28;20195;-57
2023/10/06 10:23:08;;;;;;;20.92;9.13;;;;;;;-144.30;38.84;83860.09;5102529;28;20197;-58
2023/10/06 10:25:36;;;;;;;10.48;7.85;;;;;;;-144.30;39.08;83935.59;5103318;28;20195;-57
2023/10/06 10:28:27;;;;;;;12.38;8.35;;;;;;;-144.30;39.02;83899.84;5101336;28;20195;-58
2023/10/06 10:30:59;;;;;;;14.30;8.50;;;;;;;-144.30;38.93;83899.84;5102442;28;20657;-57
2023/10/06 10:33:29;;;;;;;11.60;7.97;;;;;;;-144.30;38.66;83911.75;5101673;28;20191;-58
2023/10/06 10:36:21;;;;;;;13.18;8.32;;;;;;;-144.30;38.60;83844.19;5101212;28;20285;-58
2023/10/06 10:39:01;;;;;;;16.52;8.70;;;;;;;-144.30;38.25;83870.03;5101485;28;20214;-57
2023/10/06 10:41:34;;;;;;;17.38;8.82;;;;;;;-144.30;38.20;83870.03;5101479;28;20256;-58
2023/10/06 10:44:02;;;;;;;16.20;7.97;;;;;;;-144.30;38.11;83834.25;5100789;28;20203;-58
2023/10/06 10:46:39;;;;;;;29.55;10.73;;;;;;;-144.30;38.03;83782.59;5101852;28;20195;-58
2023/10/06 10:49:10;;;;;;;25.20;8.65;;;;;;;-144.30;38.03;83627.63;5101200;28;20193;-58
2023/10/06 10:51:50;;;;;;;12.68;8.05;;;;;;;-144.30;38.12;83868.03;5100582;28;20594;-58
2023/10/06 10:54:21;;;;;;;14.23;10.02;;;;;;;-144.30;38.22;83822.34;5102625;28;20205;-59
2023/10/06 10:56:51;;;;;;;12.65;8.68;;;;;;;-144.30;38.22;83788.56;5101496;28;20198;-57
2023/10/06 10:59:18;;;;;;;13.80;9.30;;;;;;;-144.30;38.27;83786.56;5100573;28;20354;-58
2023/10/06 11:01:51;;;;;;;16.20;9.35;;;;;;;-144.30;38.18;83603.78;5100769;28;20191;-58
2023/10/06 11:04:25;;;;;;;11.45;8.95;;;;;;;-144.30;38.05;83822.34;5100403;28;20294;-60
2023/10/06 11:06:55;;;;;;;19.98;10.65;;;;;;;-144.30;38.01;83764.72;5101367;28;20659;-58
2023/10/06 11:09:29;;;;;;;17.83;9.80;;;;;;;-144.30;38.15;83772.66;5102402;28;20198;-58
2023/10/06 11:11:58;;;;;;;11.27;8.98;;;;;;;-144.30;38.07;83780.63;5102065;28;20187;-57
2023/10/06 11:14:26;;;;;;;17.88;9.30;;;;;;;-144.30;38.02;83798.50;5100587;28;20192;-57
2023/10/06 11:17:01;;;;;;;13.18;10.43;;;;;;;-144.30;38.49;83798.50;5102267;28;20604;-60